createdAt,value
2022-09-09T00:02:18.944Z,75.31
2022-09-09T00:04:56.260Z,75.52
2022-09-09T00:07:39.508Z,75.58
2022-09-09T00:10:41.010Z,75.63
2022-09-09T00:13:28.907Z,75.89
2022-09-09T00:16:21.514Z,76.13
2022-09-09T00:19:06.939Z,76.60
2022-09-09T00:21:40.387Z,76.59
2022-09-09T00:24:28.295Z,76.81
2022-09-09T00:27:05.818Z,76.73
2022-09-09T00:29:43.060Z,76.65
2022-09-09T00:32:18.505Z,77.03
2022-09-09T00:34:57.962Z,76.92
2022-09-09T00:37:27.738Z,77.23
2022-09-09T00:40:01.211Z,77.07
2022-09-09T00:42:43.214Z,77.36
2022-09-09T00:45:48.926Z,77.85
2022-09-09T00:48:17.423Z,77.81
2022-09-09T00:50:56.824Z,77.82
2022-09-09T00:54:08.851Z,77.96
2022-09-09T00:57:00.624Z,77.86
2022-09-09T00:59:31.320Z,78.18
2022-09-09T01:02:00.166Z,78.21
2022-09-09T01:04:35.923Z,78.14
2022-09-09T01:07:18.633Z,78.34
2022-09-09T01:09:58.179Z,78.48
2022-09-09T01:12:45.537Z,78.66
2022-09-09T01:15:33.200Z,78.98
2022-09-09T01:18:11.266Z,78.79
2022-09-09T01:21:08.862Z,78.94
2022-09-09T01:23:58.904Z,79.03
2022-09-09T01:27:22.190Z,79.08
2022-09-09T01:29:50.352Z,79.25
2022-09-09T01:32:38.321Z,79.32
2022-09-09T01:35:34.700Z,79.29
2022-09-09T01:38:04.983Z,79.29
2022-09-09T01:40:40.548Z,79.13
2022-09-09T01:43:30.107Z,79.25
2022-09-09T01:46:05.114Z,79.61
2022-09-09T01:48:35.462Z,79.55
2022-09-09T01:51:14.334Z,79.49
2022-09-09T01:53:51.171Z,79.53
2022-09-09T01:56:33.728Z,79.54
2022-09-09T01:59:38.730Z,79.52
2022-09-09T02:02:59.797Z,79.50
2022-09-09T02:05:42.424Z,79.45
2022-09-09T02:08:43.579Z,79.58
2022-09-09T02:11:19.751Z,79.53
2022-09-09T02:13:59.321Z,79.45
2022-09-09T02:16:43.668Z,79.78
2022-09-09T02:19:15.726Z,79.64
2022-09-09T02:21:58.913Z,79.93
2022-09-09T02:24:30.059Z,80.19
2022-09-09T02:27:10.444Z,80.12
2022-09-09T02:29:42.814Z,80.15
2022-09-09T02:32:19.845Z,80.11
2022-09-09T02:35:00.547Z,80.12
2022-09-09T02:37:42.695Z,80.14
2022-09-09T02:40:16.505Z,80.27
2022-09-09T02:42:51.961Z,80.44
2022-09-09T02:45:45.759Z,80.46
2022-09-09T02:48:36.827Z,80.55
2022-09-09T02:51:28.498Z,80.42
2022-09-09T02:54:32.540Z,80.63
2022-09-09T02:57:10.724Z,80.52
2022-09-09T03:00:12.634Z,80.58
2022-09-09T03:02:57.970Z,80.81
2022-09-09T03:05:47.075Z,80.68
2022-09-09T03:08:16.102Z,80.86
2022-09-09T03:10:44.376Z,80.83
2022-09-09T03:13:21.133Z,80.75
2022-09-09T03:15:57.307Z,80.88
2022-09-09T03:18:46.252Z,80.91
2022-09-09T03:21:15.923Z,80.94
2022-09-09T03:24:04.593Z,80.99
2022-09-09T03:26:33.151Z,80.94
2022-09-09T03:29:01.835Z,81.02
2022-09-09T03:31:46.205Z,81.05
2022-09-09T03:34:17.087Z,81.06
2022-09-09T03:36:48.076Z,81.07
2022-09-09T03:39:16.886Z,80.95
2022-09-09T03:41:47.386Z,81.11
2022-09-09T03:44:16.347Z,80.99
2022-09-09T03:46:45.454Z,80.98
2022-09-09T03:49:14.052Z,81.01
2022-09-09T03:51:43.713Z,81.06
2022-09-09T03:54:12.946Z,81.13
2022-09-09T03:56:42.574Z,81.12
2022-09-09T03:59:11.578Z,81.09
2022-09-09T04:01:40.284Z,81.00
2022-09-09T04:04:10.047Z,81.22
2022-09-09T04:06:38.368Z,81.09
2022-09-09T04:09:06.637Z,81.09
2022-09-09T04:11:35.307Z,81.09
2022-09-09T04:14:03.772Z,81.07
2022-09-09T04:16:32.045Z,81.09
2022-09-09T04:19:01.189Z,81.21
2022-09-09T04:21:29.266Z,81.22
2022-09-09T04:23:57.534Z,81.06
2022-09-09T04:26:26.518Z,81.19
2022-09-09T04:28:54.959Z,81.17
2022-09-09T04:31:25.016Z,81.06
2022-09-09T04:33:56.017Z,81.27
2022-09-09T04:36:24.141Z,81.14
2022-09-09T04:38:55.346Z,81.23
2022-09-09T04:41:23.595Z,81.21
2022-09-09T04:43:54.567Z,81.37
2022-09-09T04:46:24.065Z,81.38
2022-09-09T04:48:53.649Z,81.40
2022-09-09T04:51:22.087Z,81.36
2022-09-09T04:53:51.893Z,81.35
2022-09-09T04:56:20.229Z,81.35
2022-09-09T04:58:52.522Z,81.43
2022-09-09T05:01:25.373Z,81.40
2022-09-09T05:03:55.929Z,81.52
2022-09-09T05:06:25.028Z,81.51
2022-09-09T05:08:57.062Z,81.51
2022-09-09T05:11:28.900Z,81.51
2022-09-09T05:14:01.356Z,81.51
2022-09-09T05:16:31.646Z,81.61
2022-09-09T05:19:00.217Z,81.59
2022-09-09T05:21:32.813Z,81.59
2022-09-09T05:24:02.195Z,81.59
2022-09-09T05:26:30.717Z,81.60
2022-09-09T05:29:01.641Z,81.71
2022-09-09T05:31:31.546Z,81.70
2022-09-09T05:34:01.507Z,81.61
2022-09-09T05:36:29.858Z,81.77
2022-09-09T05:38:57.914Z,81.76
2022-09-09T05:41:27.359Z,81.77
2022-09-09T05:43:57.200Z,81.72
2022-09-09T05:46:26.425Z,81.85
2022-09-09T05:48:56.180Z,81.84
2022-09-09T05:51:31.308Z,81.87
2022-09-09T05:54:00.885Z,81.83
2022-09-09T05:56:31.529Z,81.91
2022-09-09T05:59:01.397Z,81.88
2022-09-09T06:01:35.249Z,81.83
2022-09-09T06:04:05.523Z,81.96
2022-09-09T06:06:40.597Z,81.96
2022-09-09T06:09:14.819Z,82.00
2022-09-09T06:11:44.002Z,81.95
2022-09-09T06:14:12.499Z,81.99
2022-09-09T06:16:44.265Z,82.06
2022-09-09T06:19:21.842Z,82.06
2022-09-09T06:21:51.404Z,82.05
2022-09-09T06:24:20.609Z,82.10
2022-09-09T06:26:48.893Z,82.13
2022-09-09T06:29:22.711Z,82.15
2022-09-09T06:31:52.326Z,82.18
2022-09-09T06:34:22.847Z,82.14
2022-09-09T06:37:01.260Z,82.24
2022-09-09T06:39:37.070Z,82.21
2022-09-09T06:42:05.669Z,82.19
2022-09-09T06:44:53.784Z,82.41
2022-09-09T06:47:57.515Z,82.55
2022-09-09T06:50:26.030Z,82.40
2022-09-09T06:52:54.755Z,82.39
2022-09-09T06:55:23.016Z,82.52
2022-09-09T06:57:52.237Z,82.66
2022-09-09T07:00:23.818Z,82.58
2022-09-09T07:02:52.510Z,82.62
2022-09-09T07:05:20.678Z,82.61
2022-09-09T07:07:49.215Z,82.74
2022-09-09T07:10:18.791Z,82.62
2022-09-09T07:12:52.926Z,82.80
2022-09-09T07:15:20.950Z,82.82
2022-09-09T07:17:49.709Z,82.99
2022-09-09T07:20:17.886Z,82.94
2022-09-09T07:22:46.116Z,82.96
2022-09-09T07:25:15.852Z,82.95
2022-09-09T07:27:45.197Z,82.97
2022-09-09T07:30:21.987Z,82.98
2022-09-09T07:32:54.406Z,82.92
2022-09-09T07:35:24.446Z,82.88
2022-09-09T07:37:52.312Z,83.05
2022-09-09T07:40:23.028Z,83.16
2022-09-09T07:42:51.698Z,83.12
2022-09-09T07:45:19.667Z,82.95
2022-09-09T07:47:50.184Z,83.09
2022-09-09T07:50:19.008Z,83.04
2022-09-09T07:52:46.915Z,83.12
2022-09-09T07:55:16.165Z,83.24
2022-09-09T07:57:44.531Z,83.10
2022-09-09T08:00:15.769Z,83.23
2022-09-09T08:02:45.386Z,83.32
2022-09-09T08:05:14.230Z,83.41
2022-09-09T08:07:42.464Z,83.42
2022-09-09T08:10:11.198Z,83.41
2022-09-09T08:12:44.696Z,83.46
2022-09-09T08:15:24.878Z,83.38
2022-09-09T08:17:52.885Z,83.49
2022-09-09T08:20:21.182Z,83.46
2022-09-09T08:22:51.284Z,83.34
2022-09-09T08:25:19.245Z,83.53
2022-09-09T08:27:47.463Z,83.58
2022-09-09T08:30:16.079Z,83.56
2022-09-09T08:32:46.006Z,83.64
2022-09-09T08:35:15.656Z,83.68
2022-09-09T08:37:43.890Z,83.72
2022-09-09T08:40:23.361Z,83.61
2022-09-09T08:42:55.293Z,83.73
2022-09-09T08:46:12.019Z,83.57
2022-09-09T08:48:53.481Z,83.78
2022-09-09T08:51:21.697Z,83.70
2022-09-09T08:53:54.487Z,83.59
2022-09-09T08:56:28.395Z,83.81
2022-09-09T08:59:04.251Z,83.91
2022-09-09T09:02:04.093Z,83.87
2022-09-09T09:04:46.741Z,83.81
2022-09-09T09:07:35.305Z,83.90
2022-09-09T09:10:42.530Z,84.01
2022-09-09T09:13:41.647Z,83.99
2022-09-09T09:16:33.535Z,83.90
2022-09-09T09:19:02.959Z,83.86
2022-09-09T09:21:43.265Z,83.88
2022-09-09T09:24:22.294Z,84.02
2022-09-09T09:26:51.454Z,84.04
2022-09-09T09:29:22.742Z,83.90
2022-09-09T09:31:57.982Z,83.89
2022-09-09T09:34:26.722Z,83.88
2022-09-09T09:36:58.060Z,83.91
2022-09-09T09:42:24.103Z,83.81
2022-09-09T09:44:53.423Z,83.71
2022-09-09T09:47:24.639Z,83.93
2022-09-09T09:50:20.582Z,84.00
2022-09-09T09:53:02.198Z,84.12
2022-09-09T09:55:36.672Z,83.88
2022-09-09T09:58:18.479Z,84.05
2022-09-09T10:00:54.292Z,83.95
2022-09-09T10:03:27.419Z,83.93
2022-09-09T10:05:57.556Z,84.12
2022-09-09T10:08:29.461Z,83.81
2022-09-09T10:11:01.084Z,83.77
2022-09-09T10:13:39.925Z,83.49
2022-09-09T10:16:30.514Z,83.80
2022-09-09T10:19:04.082Z,83.81
2022-09-09T10:22:12.352Z,83.59
2022-09-09T10:24:52.194Z,83.56
2022-09-09T10:27:35.382Z,83.62
2022-09-09T10:30:22.129Z,83.45
2022-09-09T10:32:53.386Z,83.46
2022-09-09T10:35:30.122Z,83.51
2022-09-09T10:38:27.370Z,83.38
2022-09-09T10:40:57.647Z,83.43
2022-09-09T10:43:47.558Z,83.44
2022-09-09T10:46:46.560Z,83.49
2022-09-09T10:49:41.921Z,83.34
2022-09-09T10:52:29.293Z,83.42
2022-09-09T10:55:13.860Z,83.52
2022-09-09T10:57:44.676Z,83.61
2022-09-09T11:00:41.647Z,83.52
2022-09-09T11:03:26.190Z,83.37
2022-09-09T11:06:05.330Z,83.49
2022-09-09T11:08:38.915Z,83.48
2022-09-09T11:11:28.787Z,83.57
2022-09-09T11:14:27.400Z,83.55
2022-09-09T11:17:03.350Z,83.71
2022-09-09T11:19:37.237Z,83.58
2022-09-09T11:22:33.996Z,83.60
2022-09-09T11:25:40.802Z,83.49
2022-09-09T11:28:24.513Z,83.51
2022-09-09T11:31:09.650Z,83.40
2022-09-09T11:33:48.600Z,83.32
2022-09-09T11:36:35.844Z,83.48
2022-09-09T11:39:39.721Z,83.34
2022-09-09T11:42:13.612Z,83.33
2022-09-09T11:44:43.452Z,83.36
2022-09-09T11:47:30.727Z,83.39
2022-09-09T11:50:17.381Z,83.41
2022-09-09T11:52:47.418Z,83.24
2022-09-09T11:55:33.985Z,83.04
2022-09-09T11:58:12.148Z,82.96
2022-09-09T12:00:48.450Z,82.89
2022-09-09T12:03:47.241Z,82.98
2022-09-09T12:06:47.500Z,82.84
2022-09-09T12:09:46.000Z,82.80
2022-09-09T12:12:16.423Z,82.66
2022-09-09T12:15:04.705Z,82.60
2022-09-09T12:17:38.989Z,82.75
2022-09-09T12:20:16.419Z,82.72
2022-09-09T12:23:03.808Z,82.65
2022-09-09T12:25:50.464Z,82.67
2022-09-09T12:28:45.177Z,82.63
2022-09-09T12:31:35.744Z,82.54
2022-09-09T12:34:31.811Z,82.48
2022-09-09T12:37:07.478Z,82.46
2022-09-09T12:39:47.701Z,82.30
2022-09-09T12:42:20.676Z,82.26
2022-09-09T12:44:58.136Z,82.16
2022-09-09T12:47:41.825Z,82.22
2022-09-09T12:50:27.268Z,81.94
2022-09-09T12:53:03.168Z,81.72
2022-09-09T12:55:34.806Z,81.77
2022-09-09T12:58:07.653Z,81.80
2022-09-09T13:00:36.451Z,81.64
2022-09-09T13:03:18.763Z,81.65
2022-09-09T13:05:48.104Z,81.37
2022-09-09T13:08:21.666Z,81.30
2022-09-09T13:11:02.881Z,81.36
2022-09-09T13:13:41.459Z,81.18
2022-09-09T13:16:43.212Z,81.29
2022-09-09T13:19:18.358Z,81.41
2022-09-09T13:21:46.631Z,81.24
2022-09-09T13:24:32.170Z,81.13
2022-09-09T13:27:03.083Z,81.15
2022-09-09T13:29:35.263Z,80.72
2022-09-09T13:32:14.651Z,80.83
2022-09-09T13:34:53.636Z,80.78
2022-09-09T13:37:37.341Z,80.85
2022-09-09T13:40:14.438Z,80.66
2022-09-09T13:42:43.967Z,80.61
2022-09-09T13:45:21.758Z,80.52
2022-09-09T13:47:54.416Z,80.26
2022-09-09T13:50:28.558Z,80.35
2022-09-09T13:53:01.435Z,80.37
2022-09-09T13:55:31.687Z,80.39
2022-09-09T13:58:06.105Z,80.25
2022-09-09T14:00:36.516Z,80.51
2022-09-09T14:03:08.770Z,80.53
2022-09-09T14:05:36.920Z,80.53
2022-09-09T14:08:23.010Z,80.41
2022-09-09T14:10:51.569Z,80.36
2022-09-09T14:13:19.626Z,80.46
2022-09-09T14:15:49.205Z,80.66
2022-09-09T14:18:17.609Z,80.55
2022-09-09T14:20:45.936Z,80.54
2022-09-09T14:23:14.512Z,80.68
2022-09-09T14:25:44.672Z,80.76
2022-09-09T14:28:14.677Z,80.84
2022-09-09T14:30:45.779Z,80.68
2022-09-09T14:33:16.484Z,80.58
2022-09-09T14:35:47.786Z,80.50
2022-09-09T14:38:19.289Z,80.19
2022-09-09T14:40:48.051Z,79.94
2022-09-09T14:43:17.033Z,79.96
2022-09-09T14:45:49.316Z,79.95
2022-09-09T14:48:17.161Z,79.71
2022-09-09T14:50:45.009Z,79.72
2022-09-09T14:53:13.824Z,79.99
2022-09-09T14:55:42.033Z,79.69
2022-09-09T14:58:10.314Z,79.58
2022-09-09T15:00:38.634Z,79.52
2022-09-09T15:03:07.457Z,79.69
2022-09-09T15:05:37.788Z,79.55
2022-09-09T15:08:05.835Z,79.48
2022-09-09T15:10:36.102Z,79.31
2022-09-09T15:13:12.054Z,79.17
2022-09-09T15:15:40.627Z,78.98
2022-09-09T15:18:08.637Z,79.07
2022-09-09T15:20:40.411Z,79.37
2022-09-09T15:23:10.105Z,79.31
2022-09-09T15:25:53.310Z,79.19
2022-09-09T15:28:22.149Z,79.06
2022-09-09T15:30:53.434Z,79.05
2022-09-09T15:33:23.360Z,79.35
2022-09-09T15:35:52.962Z,78.98
2022-09-09T15:38:20.861Z,78.86
2022-09-09T15:40:55.655Z,78.97
2022-09-09T15:43:24.136Z,78.99
2022-09-09T15:46:03.722Z,78.94
2022-09-09T15:48:35.800Z,78.75
2022-09-09T15:51:19.543Z,78.72
2022-09-09T15:53:57.256Z,78.74
2022-09-09T15:56:29.095Z,78.81
2022-09-09T15:59:00.283Z,78.85
2022-09-09T16:01:28.936Z,78.82
2022-09-09T16:03:58.737Z,78.97
2022-09-09T16:06:29.507Z,78.93
2022-09-09T16:09:00.744Z,79.17
2022-09-09T16:11:32.172Z,78.99
2022-09-09T16:14:01.266Z,79.12
2022-09-09T16:16:30.985Z,79.13
2022-09-09T16:19:07.324Z,79.15
2022-09-09T16:21:41.313Z,79.02
2022-09-09T16:24:14.332Z,79.24
2022-09-09T16:26:47.520Z,79.16
2022-09-09T16:29:18.462Z,79.15
2022-09-09T16:31:48.010Z,79.23
2022-09-09T16:34:18.631Z,79.36
2022-09-09T16:36:47.921Z,79.25
2022-09-09T16:39:19.747Z,79.31
2022-09-09T16:41:49.423Z,79.23
2022-09-09T16:44:19.854Z,79.14
2022-09-09T16:46:58.051Z,79.24
2022-09-09T16:49:29.896Z,79.17
2022-09-09T16:51:59.963Z,79.15
2022-09-09T16:54:28.514Z,79.08
2022-09-09T16:56:56.481Z,79.06
2022-09-09T16:59:25.789Z,79.07
2022-09-09T17:01:53.909Z,79.03
2022-09-09T17:04:26.618Z,78.94
2022-09-09T17:06:56.384Z,78.82
2022-09-09T17:09:30.074Z,78.79
2022-09-09T17:11:59.576Z,78.69
2022-09-09T17:14:32.469Z,78.88
2022-09-09T17:17:18.910Z,78.84
2022-09-09T17:19:52.089Z,78.86
2022-09-09T17:22:21.266Z,78.91
2022-09-09T17:24:49.135Z,79.00
2022-09-09T17:27:18.054Z,78.90
2022-09-09T17:29:46.419Z,79.17
2022-09-09T17:32:14.520Z,79.14
2022-09-09T17:34:42.689Z,79.12
2022-09-09T17:37:21.411Z,79.24
2022-09-09T17:39:49.595Z,79.14
2022-09-09T17:42:17.676Z,79.23
2022-09-09T17:44:45.571Z,79.15
2022-09-09T17:47:14.296Z,79.21
2022-09-09T17:49:42.983Z,79.28
2022-09-09T17:52:10.830Z,79.27
2022-09-09T17:54:38.905Z,79.28
2022-09-09T17:57:07.797Z,79.19
2022-09-09T17:59:36.324Z,79.40
2022-09-09T18:02:09.059Z,79.35
2022-09-09T18:04:43.011Z,79.19
2022-09-09T18:07:13.693Z,79.27
2022-09-09T18:09:42.653Z,79.21
2022-09-09T18:12:11.117Z,79.22
2022-09-09T18:14:39.129Z,79.18
2022-09-09T18:17:07.228Z,79.15
2022-09-09T18:19:35.825Z,78.94
2022-09-09T18:22:06.199Z,78.95
2022-09-09T18:24:34.861Z,78.68
2022-09-09T18:27:03.134Z,78.77
2022-09-09T18:29:32.043Z,78.74
2022-09-09T18:32:00.538Z,78.84
2022-09-09T18:34:30.347Z,78.99
2022-09-09T18:36:59.335Z,78.86
2022-09-09T18:39:29.949Z,78.84
2022-09-09T18:42:01.082Z,78.96
2022-09-09T18:44:34.562Z,78.97
2022-09-09T18:47:04.284Z,79.05
2022-09-09T18:49:33.802Z,79.26
2022-09-09T18:52:04.506Z,79.21
2022-09-09T18:54:34.234Z,79.30
2022-09-09T18:57:02.535Z,79.33
2022-09-09T18:59:31.752Z,79.50
2022-09-09T19:02:00.730Z,79.44
2022-09-09T19:04:29.218Z,79.37
2022-09-09T19:06:58.968Z,79.45
2022-09-09T19:09:33.898Z,79.35
2022-09-09T19:12:02.996Z,79.29
2022-09-09T19:14:31.317Z,79.31
2022-09-09T19:17:00.571Z,79.12
2022-09-09T19:19:32.136Z,79.01
2022-09-09T19:22:01.961Z,78.88
2022-09-09T19:24:33.885Z,79.05
2022-09-09T19:27:06.033Z,79.08
2022-09-09T19:29:41.928Z,79.19
2022-09-09T19:35:02.162Z,79.27
2022-09-09T19:37:32.596Z,79.42
2022-09-09T19:40:01.429Z,79.44
2022-09-09T19:42:48.648Z,79.42
2022-09-09T19:45:20.279Z,79.39
2022-09-09T19:47:49.150Z,79.29
2022-09-09T19:50:20.084Z,79.34
2022-09-09T19:52:53.429Z,79.46
2022-09-09T19:55:28.896Z,79.58
2022-09-09T19:57:58.781Z,79.89
2022-09-09T20:00:29.069Z,79.98
2022-09-09T20:03:18.582Z,80.14
2022-09-09T20:05:52.186Z,80.24
2022-09-09T20:08:23.585Z,80.50
2022-09-09T20:10:55.781Z,80.56
2022-09-09T20:13:27.975Z,80.63
2022-09-09T20:16:25.991Z,80.76
2022-09-09T20:18:57.507Z,80.78
2022-09-09T20:21:36.906Z,80.74
2022-09-09T20:24:10.773Z,80.83
2022-09-09T20:26:51.489Z,80.84
2022-09-09T20:29:21.828Z,81.10
2022-09-09T20:31:52.033Z,81.09
2022-09-09T20:34:26.651Z,81.08
2022-09-09T20:36:56.276Z,81.13
2022-09-09T20:39:25.731Z,81.18
2022-09-09T20:41:53.960Z,81.10
2022-09-09T20:44:24.462Z,81.13
2022-09-09T20:47:02.876Z,81.04
2022-09-09T20:49:31.624Z,80.94
2022-09-09T20:52:02.264Z,80.98
2022-09-09T20:54:33.788Z,80.99
2022-09-09T20:57:02.113Z,80.77
2022-09-09T20:59:34.927Z,80.59
2022-09-09T21:02:03.612Z,80.69
2022-09-09T21:04:33.003Z,80.56
2022-09-09T21:07:00.887Z,80.40
2022-09-09T21:09:38.035Z,80.64
2022-09-09T21:12:07.373Z,80.70
2022-09-09T21:14:35.664Z,80.82
2022-09-09T21:17:03.577Z,80.77
2022-09-09T21:19:32.113Z,80.91
2022-09-09T21:22:00.674Z,80.76
2022-09-09T21:24:28.511Z,80.66
2022-09-09T21:26:56.724Z,80.58
2022-09-09T21:29:25.074Z,80.57
2022-09-09T21:31:55.739Z,80.85
2022-09-09T21:34:26.205Z,80.80
2022-09-09T21:36:54.870Z,80.89
2022-09-09T21:39:22.903Z,81.04
2022-09-09T21:41:51.215Z,81.08
2022-09-09T21:44:19.293Z,80.96
2022-09-09T21:46:47.222Z,80.96
2022-09-09T21:49:15.377Z,80.94
2022-09-09T21:51:44.591Z,80.97
2022-09-09T21:54:13.174Z,80.93
2022-09-09T21:56:43.133Z,80.83
2022-09-09T21:59:12.192Z,80.85
2022-09-09T22:01:42.550Z,80.86
2022-09-09T22:04:10.986Z,80.80
2022-09-09T22:06:39.035Z,80.79
2022-09-09T22:09:07.595Z,80.93
2022-09-09T22:11:36.432Z,80.91
2022-09-09T22:14:04.561Z,80.94
2022-09-09T22:16:33.742Z,80.92
2022-09-09T22:19:02.607Z,80.91
2022-09-09T22:21:33.331Z,80.81
2022-09-09T22:24:03.898Z,80.80
2022-09-09T22:26:34.876Z,80.77
2022-09-09T22:29:04.168Z,80.78
2022-09-09T22:31:34.078Z,80.61
2022-09-09T22:34:03.217Z,80.64
2022-09-09T22:36:32.983Z,80.56
2022-09-09T22:39:02.015Z,80.58
2022-09-09T22:41:30.155Z,80.60
2022-09-09T22:43:59.364Z,80.42
2022-09-09T22:46:27.352Z,80.38
2022-09-09T22:48:55.339Z,80.29
2022-09-09T22:51:23.442Z,80.38
2022-09-09T22:53:51.316Z,80.39
2022-09-09T22:56:20.617Z,80.45
2022-09-09T22:58:55.504Z,80.44
2022-09-09T23:01:26.273Z,80.37
2022-09-09T23:03:59.440Z,80.26
2022-09-09T23:06:29.299Z,80.13
2022-09-09T23:09:03.021Z,80.19
2022-09-09T23:11:36.250Z,80.34
2022-09-09T23:14:10.347Z,80.15
2022-09-09T23:16:47.475Z,80.26
2022-09-09T23:19:16.837Z,80.24
2022-09-09T23:21:46.234Z,80.19
2022-09-09T23:24:21.317Z,80.29
2022-09-09T23:26:50.498Z,80.25
2022-09-09T23:29:19.309Z,80.39
2022-09-09T23:31:47.371Z,80.38
2022-09-09T23:34:15.603Z,80.35
2022-09-09T23:36:43.825Z,80.42
2022-09-09T23:39:12.477Z,80.57
2022-09-09T23:41:40.592Z,80.44
2022-09-09T23:44:08.512Z,80.52
2022-09-09T23:46:36.770Z,80.45
2022-09-09T23:49:05.109Z,80.62
2022-09-09T23:51:34.077Z,80.59
2022-09-09T23:54:05.078Z,80.56
2022-09-09T23:56:38.089Z,80.68
2022-09-09T23:59:07.237Z,80.65
